SEM weather

Craig Field
Selma, Alabama, United States

Public forecast

Using degrees Fahrenheit for public forecast. Weather courtesy of forecast.io.

METAR (pilot weather report)

Retrieved 2019/08/24 03:35 UTC (0 seconds ago):

KSEM 240335Z AUTO 00000KT 10SM VCTS 24/23 A3001 RMK AO2 LTG DSNT SW-NW

TAF (pilot weather forecast)

Forecast is more than 12 hours old.

Closest forecast is Montgomery Regional (Dannelly Field) Airport, 30.2 nm (56.0 km) E. Retrieved 2019/08/23 00:30 UTC (1 day ago):

TAF KMGM 232329Z 2400/2424 VRB05KT P6SM VCTS SCT050CB SCT080 TEMPO 2400/2402 4SM TSRA BKN050CB FM240200 00000KT P6SM BKN120 TEMPO 2410/2414 4SM BR SCT002 FM241500 00000KT P6SM SCT100 FM241900 VRB05KT P6SM VCTS BKN050CB